Time;durP1;ratioP1;P1;durP2;ratioP2;P2;SDS_P1;SDS_P2;PMS_P1;PMS_P2;Temp;Humidity;BMP_temperature;BMP_pressure;BME280_temperature;BME280_humidity;BME280_pressure;Samples;Min_cycle;Max_cycle;Signal;HPM_P1;HPM_P2
2023/01/07 00:01:02;;;;;;;;;;;;;;;27.57;58.29;100950.53;5080965;27;65535;-40
2023/01/07 00:03:33;;;;;;;;;;;;;;;27.58;58.74;100952.19;5081656;27;69497;-41
2023/01/07 00:06:06;;;;;;;;;;;;;;;27.61;59.08;100953.69;5087160;27;66388;-41
2023/01/07 00:08:38;;;;;;;;;;;;;;;27.61;59.12;100951.81;5074186;27;70457;-40
2023/01/07 00:11:10;;;;;;;;;;;;;;;27.66;59.32;100944.97;5057417;27;66817;-40
2023/01/07 00:13:41;;;;;;;;;;;;;;;27.67;58.92;100950.19;5078333;27;70056;-40
2023/01/07 00:16:14;;;;;;;;;;;;;;;27.70;59.34;100943.56;5061969;27;66369;-40
2023/01/07 00:18:46;;;;;;;;;;;;;;;27.40;59.68;100911.44;5081721;27;70852;-40
2023/01/07 00:21:17;;;;;;;;;;;;;;;27.56;59.94;100948.88;5057305;27;66092;-40
2023/01/07 00:23:52;;;;;;;;;;;;;;;27.56;59.91;100954.25;5047109;27;70593;-42
2023/01/07 00:26:25;;;;;;;;;;;;;;;27.59;59.88;100959.25;5078266;27;67048;-41
2023/01/07 00:28:56;;;;;;;;;;;;;;;27.63;60.41;100967.75;5082832;27;70414;-36
2023/01/07 00:31:29;;;;;;;;;;;;;;;27.63;60.79;100967.75;5075868;27;65816;-35
2023/01/07 00:36:32;;;;;;;;;;;;;;;27.68;61.31;100978.78;5080069;27;65447;-40
2023/01/07 00:39:09;;;;;;;;;;;;;;;27.73;61.01;100978.22;5065120;27;70481;-36
2023/01/07 00:41:40;;;;;;;;;;;;;;;27.75;61.38;100998.56;5082414;27;66656;-36
2023/01/07 00:44:10;;;;;;;;;;;;;;;27.73;60.97;100997.09;5079852;27;70783;-35
2023/01/07 00:46:41;;;;;;;;;;;;;;;27.82;61.34;101006.72;5083022;27;66093;-36
2023/01/07 00:49:12;;;;;;;;;;;;;;;27.82;61.66;101007.53;5082824;27;70295;-35
2023/01/07 00:51:46;;;;;;;;;;;;;;;27.83;61.14;101014.63;5085616;27;60102;-36
2023/01/07 00:54:17;;;;;;;;;;;;;;;27.84;61.66;101018.13;5052864;28;69790;-37
2023/01/07 00:56:48;;;;;;;;;;;;;;;27.84;62.17;101020.84;5090566;27;66385;-37
2023/01/07 00:59:19;;;;;;;;;;;;;;;27.87;61.27;101028.53;5071331;28;70289;-38
2023/01/07 01:01:51;;;;;;;;;;;;;;;27.84;61.93;101015.44;5091572;27;66990;-36
2023/01/07 01:04:22;;;;;;;;;;;;;;;27.89;61.81;101026.47;5086898;27;70356;-36
2023/01/07 01:06:53;;;;;;;;;;;;;;;27.91;61.75;101027.09;5070463;27;67417;-36
2023/01/07 01:09:25;;;;;;;;;;;;;;;28.11;62.30;101031.78;5052742;27;70070;-36
2023/01/07 01:11:55;;;;;;;;;;;;;;;28.13;62.67;101040.50;5073818;27;65025;-36
2023/01/07 01:14:26;;;;;;;;;;;;;;;28.15;62.34;101033.06;5068533;27;70563;-34
2023/01/07 01:16:57;;;;;;;;;;;;;;;28.15;61.89;101038.47;5052986;28;66888;-34
2023/01/07 01:19:28;;;;;;;;;;;;;;;28.13;62.95;101046.72;5078605;27;70607;-35
2023/01/07 01:21:58;;;;;;;;;;;;;;;28.13;62.77;101051.31;5094800;27;66533;-34
2023/01/07 01:24:29;;;;;;;;;;;;;;;28.03;62.33;101057.88;5050454;27;69760;-36
2023/01/07 01:27:00;;;;;;;;;;;;;;;27.94;62.29;101059.03;5080048;27;66872;-36
2023/01/07 01:29:31;;;;;;;;;;;;;;;27.92;62.57;101055.72;5082605;27;69801;-35
2023/01/07 01:32:02;;;;;;;;;;;;;;;27.91;62.38;101056.75;5076736;27;66703;-36
2023/01/07 01:34:33;;;;;;;;;;;;;;;27.93;62.27;101062.78;5065824;28;69335;-38
2023/01/07 01:37:04;;;;;;;;;;;;;;;27.93;62.06;101067.34;5054532;27;66883;-35
2023/01/07 01:39:36;;;;;;;;;;;;;;;27.96;61.72;101072.34;5052205;28;71847;-36
2023/01/07 01:42:10;;;;;;;;;;;;;;;27.95;61.63;101076.91;5062429;27;66599;-37
2023/01/07 01:44:49;;;;;;;;;;;;;;;27.98;61.28;101079.22;5080175;27;70737;-39
2023/01/07 01:47:36;;;;;;;;;;;;;;;27.99;61.16;101075.47;5097664;27;66545;-35
2023/01/07 01:50:21;;;;;;;;;;;;;;;28.01;61.20;101076.13;5078168;27;69905;-35
2023/01/07 01:52:58;;;;;;;;;;;;;;;28.03;61.20;101084.84;5068842;27;65845;-37
2023/01/07 01:55:42;;;;;;;;;;;;;;;28.06;61.12;101089.03;5056287;27;70773;-36
2023/01/07 01:58:16;;;;;;;;;;;;;;;28.07;60.75;101078.03;5088212;27;65655;-36
2023/01/07 02:00:48;;;;;;;;;;;;;;;28.11;60.58;101081.19;5054413;28;69040;-36
2023/01/07 02:03:22;;;;;;;;;;;;;;;28.13;60.86;101073.69;5057371;27;66923;-35
2023/01/07 02:05:53;;;;;;;;;;;;;;;28.15;60.33;101082.44;5099033;27;70787;-35
2023/01/07 02:08:24;;;;;;;;;;;;;;;28.16;60.38;101084.09;5096162;27;66060;-39
2023/01/07 02:11:15;;;;;;;;;;;;;;;28.18;60.14;101075.81;5069378;27;70286;-35
2023/01/07 02:13:46;;;;;;;;;;;;;;;28.19;60.14;101086.41;5080287;27;66568;-35
2023/01/07 02:16:43;;;;;;;;;;;;;;;28.17;60.09;101090.34;5094937;27;69708;-35
2023/01/07 02:19:34;;;;;;;;;;;;;;;28.21;59.95;101097.00;5064395;27;66232;-37
2023/01/07 02:22:13;;;;;;;;;;;;;;;28.23;60.06;101097.66;5054621;28;70300;-36
2023/01/07 02:24:44;;;;;;;;;;;;;;;28.24;60.12;101091.22;5092170;27;66287;-36
2023/01/07 02:27:27;;;;;;;;;;;;;;;28.25;60.17;101082.06;5071281;27;71649;-37
2023/01/07 02:30:16;;;;;;;;;;;;;;;28.25;59.67;101079.38;5056494;28;65749;-36
2023/01/07 02:32:53;;;;;;;;;;;;;;;28.25;59.53;101077.53;5077158;27;69709;-37
2023/01/07 02:35:47;;;;;;;;;;;;;;;28.27;59.65;101088.09;5075305;27;66679;-37
2023/01/07 02:38:27;;;;;;;;;;;;;;;28.28;59.84;101073.63;5067439;27;69342;-39
2023/01/07 02:40:58;;;;;;;;;;;;;;;28.30;59.54;101079.63;5097552;27;66562;-36
2023/01/07 02:43:47;;;;;;;;;;;;;;;28.31;59.52;101070.50;5079675;27;70281;-36
2023/01/07 02:46:21;;;;;;;;;;;;;;;28.33;59.80;101068.44;5067375;27;66241;-35
2023/01/07 02:48:52;;;;;;;;;;;;;;;28.33;59.52;101062.22;5077097;27;70596;-36
2023/01/07 02:51:31;;;;;;;;;;;;;;;28.36;59.49;101073.47;5094386;27;67112;-37
2023/01/07 02:54:03;;;;;;;;;;;;;;;28.38;59.68;101076.75;5100818;27;70072;-36
2023/01/07 02:56:40;;;;;;;;;;;;;;;28.38;59.19;101065.97;5081294;27;66955;-36
2023/01/07 02:59:19;;;;;;;;;;;;;;;28.40;59.08;101068.47;5070519;27;70021;-36
2023/01/07 03:02:08;;;;;;;;;;;;;;;28.42;59.37;101061.03;5074951;27;66091;-36
2023/01/07 03:04:39;;;;;;;;;;;;;;;28.44;58.99;101081.38;5040746;27;68949;-36
2023/01/07 03:07:25;;;;;;;;;;;;;;;28.45;58.98;101066.06;5066961;28;66735;-37
2023/01/07 03:10:12;;;;;;;;;;;;;;;28.46;59.13;101073.94;5058844;27;69471;-36
2023/01/07 03:13:12;;;;;;;;;;;;;;;28.48;59.33;101066.47;5068135;27;66616;-36
2023/01/07 03:15:50;;;;;;;;;;;;;;;28.48;58.71;101061.09;5060391;27;70250;-36
2023/01/07 03:18:29;;;;;;;;;;;;;;;28.52;58.76;101061.50;5085688;27;65475;-36
2023/01/07 03:21:02;;;;;;;;;;;;;;;28.54;58.79;101064.03;5085655;27;69292;-36
2023/01/07 03:23:35;;;;;;;;;;;;;;;28.57;59.23;101066.31;5070067;27;66731;-36
2023/01/07 03:26:07;;;;;;;;;;;;;;;28.60;58.52;101055.13;5087199;27;70508;-37
2023/01/07 03:28:41;;;;;;;;;;;;;;;28.61;58.88;101065.72;5055283;27;66154;-36
2023/01/07 03:31:13;;;;;;;;;;;;;;;28.62;58.42;101061.16;5072272;27;70759;-37
2023/01/07 03:33:47;;;;;;;;;;;;;;;28.64;58.89;101048.28;5053914;27;67349;-36
2023/01/07 03:36:22;;;;;;;;;;;;;;;28.67;58.22;101051.44;5085943;27;70598;-35
2023/01/07 03:38:56;;;;;;;;;;;;;;;28.70;58.38;101050.19;5085961;27;65129;-35
2023/01/07 03:44:20;;;;;;;;;;;;;;;28.75;58.20;101047.69;5056935;27;65960;-38
2023/01/07 03:46:51;;;;;;;;;;;;;;;28.78;58.61;101049.16;5094713;27;69962;-41
2023/01/07 03:49:22;;;;;;;;;;;;;;;28.78;58.30;101044.63;5093098;27;65496;-35
2023/01/07 03:51:53;;;;;;;;;;;;;;;28.80;58.69;101047.94;5075249;27;70043;-36
2023/01/07 03:54:25;;;;;;;;;;;;;;;28.83;58.29;101047.53;5081373;27;67107;-39
2023/01/07 03:56:57;;;;;;;;;;;;;;;28.86;58.63;101036.34;5078884;27;69260;-36
2023/01/07 03:59:27;;;;;;;;;;;;;;;28.88;58.49;101039.66;5084279;27;65560;-38
2023/01/07 04:01:58;;;;;;;;;;;;;;;28.90;58.90;101037.59;5078235;27;69773;-38
2023/01/07 04:04:31;;;;;;;;;;;;;;;28.91;58.53;101039.25;5060142;27;66264;-37
2023/01/07 04:07:02;;;;;;;;;;;;;;;28.94;58.95;101033.44;5078808;27;69835;-38
2023/01/07 04:09:33;;;;;;;;;;;;;;;28.95;59.37;101029.72;5067992;27;66643;-38
2023/01/07 04:12:04;;;;;;;;;;;;;;;28.96;59.47;101025.97;5087111;27;69676;-37
2023/01/07 04:14:35;;;;;;;;;;;;;;;28.98;59.85;101033.88;5070641;27;65543;-36
2023/01/07 04:17:05;;;;;;;;;;;;;;;29.01;59.55;101024.53;5084252;27;70236;-37
2023/01/07 04:19:37;;;;;;;;;;;;;;;29.03;60.46;101019.75;5059673;27;65303;-36
2023/01/07 04:22:11;;;;;;;;;;;;;;;29.06;60.38;101013.97;5087407;27;69466;-35
2023/01/07 04:24:43;;;;;;;;;;;;;;;29.09;60.47;101009.00;5068048;28;67038;-36
2023/01/07 04:27:15;;;;;;;;;;;;;;;29.10;60.63;100996.31;5043844;27;68981;-37
2023/01/07 04:29:46;;;;;;;;;;;;;;;29.13;61.02;100993.19;5061285;28;66544;-36
2023/01/07 04:32:18;;;;;;;;;;;;;;;29.15;61.08;100999.25;5083230;27;69838;-38
2023/01/07 04:34:48;;;;;;;;;;;;;;;29.16;61.13;100998.19;5080037;27;66080;-36
2023/01/07 04:37:21;;;;;;;;;;;;;;;29.18;61.08;101001.53;5062492;27;70378;-39
2023/01/07 04:39:52;;;;;;;;;;;;;;;29.21;60.82;100993.00;5081997;27;65167;-36
2023/01/07 04:42:23;;;;;;;;;;;;;;;29.22;60.97;100997.38;5062510;28;69861;-37
2023/01/07 04:44:54;;;;;;;;;;;;;;;29.21;60.69;100995.72;5068064;27;67108;-36
2023/01/07 04:47:25;;;;;;;;;;;;;;;29.25;60.15;100991.53;5069758;28;70398;-36
2023/01/07 04:49:57;;;;;;;;;;;;;;;29.26;60.54;100985.13;5085187;27;65897;-35
2023/01/07 04:52:32;;;;;;;;;;;;;;;29.40;60.19;100981.38;5053071;28;70539;-40
2023/01/07 04:55:03;;;;;;;;;;;;;;;29.39;60.63;100977.03;5077281;27;65756;-37
2023/01/07 04:57:34;;;;;;;;;;;;;;;29.30;60.34;100975.53;5061166;27;70024;-36
2023/01/07 05:00:05;;;;;;;;;;;;;;;29.23;60.96;100972.03;5058478;27;65591;-37
2023/01/07 05:02:37;;;;;;;;;;;;;;;29.20;60.90;100971.59;5056281;28;69746;-36
2023/01/07 05:05:09;;;;;;;;;;;;;;;29.16;61.11;100973.88;5077231;27;66786;-37
2023/01/07 05:07:41;;;;;;;;;;;;;;;29.18;60.61;100974.50;5070713;27;70273;-38
2023/01/07 05:10:12;;;;;;;;;;;;;;;29.16;61.22;100958.50;5047492;27;65284;-38
2023/01/07 05:12:44;;;;;;;;;;;;;;;29.17;61.40;100956.66;5062733;27;69875;-37
2023/01/07 05:15:17;;;;;;;;;;;;;;;29.17;60.77;100956.66;5079265;27;66392;-39
2023/01/07 05:17:48;;;;;;;;;;;;;;;29.18;61.37;100950.19;5040200;27;70185;-36
2023/01/07 05:20:19;;;;;;;;;;;;;;;29.14;61.35;100946.22;5081366;27;66329;-36
2023/01/07 05:22:50;;;;;;;;;;;;;;;29.17;61.15;100946.66;5067230;28;69214;-35
2023/01/07 05:25:20;;;;;;;;;;;;;;;29.20;61.20;100934.63;5080481;27;66029;-36
2023/01/07 05:27:52;;;;;;;;;;;;;;;29.18;60.76;100918.59;5059250;28;70099;-39
2023/01/07 05:30:24;;;;;;;;;;;;;;;29.23;61.10;100918.00;5064839;27;66589;-39
2023/01/07 05:32:57;;;;;;;;;;;;;;;29.23;60.64;100900.97;5080389;27;70416;-36
2023/01/07 05:35:27;;;;;;;;;;;;;;;29.22;61.11;100902.81;5063677;27;66141;-35
2023/01/07 05:37:59;;;;;;;;;;;;;;;29.23;60.76;100896.38;5079954;27;70738;-37
2023/01/07 05:40:30;;;;;;;;;;;;;;;29.28;60.89;100888.50;5063513;27;66701;-37
2023/01/07 05:43:01;;;;;;;;;;;;;;;29.23;61.09;100885.56;5078173;27;70590;-37
2023/01/07 05:45:33;;;;;;;;;;;;;;;29.30;60.57;100889.09;5070797;27;67135;-35
2023/01/07 05:48:03;;;;;;;;;;;;;;;29.30;60.79;100883.69;5080574;27;70355;-38
2023/01/07 05:50:34;;;;;;;;;;;;;;;29.31;60.79;100871.84;5079606;27;65554;-35
2023/01/07 05:53:05;;;;;;;;;;;;;;;29.32;60.70;100867.28;5080345;27;70130;-38
2023/01/07 05:55:39;;;;;;;;;;;;;;;29.30;60.74;100859.38;5079863;27;65774;-36
2023/01/07 05:58:10;;;;;;;;;;;;;;;29.30;60.61;100855.84;5079911;27;70159;-38
2023/01/07 06:00:40;;;;;;;;;;;;;;;29.38;60.39;100856.44;5079663;27;66440;-39
2023/01/07 06:03:11;;;;;;;;;;;;;;;29.37;60.94;100854.78;5084475;27;70537;-38
2023/01/07 06:05:42;;;;;;;;;;;;;;;29.40;60.82;100843.56;5080047;27;66591;-36
2023/01/07 06:08:13;;;;;;;;;;;;;;;29.41;60.72;100844.38;5065808;27;69785;-35
2023/01/07 06:10:45;;;;;;;;;;;;;;;29.42;60.63;100845.22;5083177;27;65155;-37
2023/01/07 06:13:15;;;;;;;;;;;;;;;29.46;60.31;100841.06;5089284;27;69764;-37
2023/01/07 06:15:46;;;;;;;;;;;;;;;29.46;60.15;100836.47;5080605;27;66934;-36
2023/01/07 06:18:17;;;;;;;;;;;;;;;29.46;60.19;100835.66;5083693;27;69780;-36
2023/01/07 06:20:49;;;;;;;;;;;;;;;29.46;60.00;100832.97;5083655;27;66538;-36
2023/01/07 06:23:20;;;;;;;;;;;;;;;29.45;60.45;100834.84;5085909;27;69555;-36
2023/01/07 06:25:51;;;;;;;;;;;;;;;29.44;59.95;100826.91;5061427;27;66228;-37
2023/01/07 06:28:21;;;;;;;;;;;;;;;29.44;60.28;100818.81;5049018;27;69827;-35
2023/01/07 06:30:52;;;;;;;;;;;;;;;29.48;60.11;100818.19;5084033;27;66078;-38
2023/01/07 06:33:23;;;;;;;;;;;;;;;29.48;60.33;100806.56;5086479;27;70518;-39
2023/01/07 06:35:54;;;;;;;;;;;;;;;29.46;60.63;100804.06;5086828;27;66623;-37
2023/01/07 06:38:25;;;;;;;;;;;;;;;29.46;60.81;100798.66;5069252;28;69858;-41
2023/01/07 06:40:57;;;;;;;;;;;;;;;29.47;60.81;100791.38;5086517;27;67639;-38
2023/01/07 06:43:29;;;;;;;;;;;;;;;29.44;60.91;100780.97;5083053;27;70092;-35
2023/01/07 06:46:00;;;;;;;;;;;;;;;29.48;60.90;100787.63;5085469;27;66397;-35
2023/01/07 06:48:30;;;;;;;;;;;;;;;29.46;60.59;100777.03;5081492;27;69412;-36
2023/01/07 06:51:02;;;;;;;;;;;;;;;29.50;61.15;100777.41;5083379;27;65959;-37
2023/01/07 06:53:33;;;;;;;;;;;;;;;29.48;61.19;100768.72;5085757;27;70900;-37
2023/01/07 06:56:04;;;;;;;;;;;;;;;29.52;61.09;100769.94;5084958;27;65810;-37
2023/01/07 06:58:34;;;;;;;;;;;;;;;29.48;61.26;100757.91;5062280;27;71805;-36
2023/01/07 07:01:06;;;;;;;;;;;;;;;29.50;61.55;100766.63;5084608;27;66259;-41
2023/01/07 07:03:37;;;;;;;;;;;;;;;29.53;61.42;100749.97;5082922;27;70020;-36
2023/01/07 07:06:09;;;;;;;;;;;;;;;29.55;61.63;100754.13;5081351;27;66294;-36
2023/01/07 07:08:40;;;;;;;;;;;;;;;29.62;61.53;100751.41;5082752;27;68896;-38
2023/01/07 07:11:11;;;;;;;;;;;;;;;29.62;60.84;100737.88;5078768;27;66689;-39
2023/01/07 07:13:41;;;;;;;;;;;;;;;29.62;60.78;100749.53;5048712;27;69551;-38
2023/01/07 07:16:13;;;;;;;;;;;;;;;29.66;60.85;100744.53;5062992;27;68052;-37
2023/01/07 07:18:43;;;;;;;;;;;;;;;29.66;60.80;100732.91;5084597;27;70023;-39
2023/01/07 07:21:14;;;;;;;;;;;;;;;29.66;60.74;100732.91;5080823;27;66652;-37
2023/01/07 07:23:45;;;;;;;;;;;;;;;29.65;60.95;100731.25;5065974;28;70457;-38
2023/01/07 07:26:19;;;;;;;;;;;;;;;29.63;60.96;100728.75;5077583;27;66391;-37
2023/01/07 07:28:59;;;;;;;;;;;;;;;29.66;61.25;100724.78;5089531;27;70395;-37
2023/01/07 07:31:30;;;;;;;;;;;;;;;29.66;60.91;100727.50;5064645;27;65198;-37
2023/01/07 07:34:01;;;;;;;;;;;;;;;29.65;61.17;100725.84;5081967;27;69798;-36
2023/01/07 07:36:33;;;;;;;;;;;;;;;29.63;60.90;100726.06;5080216;27;65962;-36
2023/01/07 07:39:04;;;;;;;;;;;;;;;29.63;61.62;100720.66;5061160;28;70197;-37
2023/01/07 07:41:35;;;;;;;;;;;;;;;29.59;61.19;100716.69;5070684;27;66968;-36
2023/01/07 07:44:09;;;;;;;;;;;;;;;29.60;61.56;100718.34;5062175;28;71050;-38
2023/01/07 07:46:40;;;;;;;;;;;;;;;29.63;62.02;100717.94;5082576;27;66762;-38
2023/01/07 07:49:11;;;;;;;;;;;;;;;29.64;62.55;100722.28;5081954;27;69834;-38
2023/01/07 07:51:42;;;;;;;;;;;;;;;29.65;63.17;100723.97;5085256;27;66804;-37
2023/01/07 07:54:14;;;;;;;;;;;;;;;29.64;63.19;100719.59;5079735;27;69155;-39
2023/01/07 07:56:44;;;;;;;;;;;;;;;29.66;63.15;100714.81;5081916;27;66889;-41
2023/01/07 07:59:15;;;;;;;;;;;;;;;29.67;63.11;100705.66;5064964;27;70447;-36
2023/01/07 08:01:46;;;;;;;;;;;;;;;29.67;63.49;100719.19;5081421;27;65980;-36
2023/01/07 08:04:17;;;;;;;;;;;;;;;29.65;64.71;100715.03;5077074;27;70900;-38
2023/01/07 08:06:47;;;;;;;;;;;;;;;29.53;58.60;100690.50;5078768;27;66836;-37
2023/01/07 08:09:18;;;;;;;;;;;;;;;29.62;56.33;100714.38;5060991;27;69769;-38
2023/01/07 08:11:49;;;;;;;;;;;;;;;29.61;58.51;100710.03;5074931;27;66674;-35
2023/01/07 08:14:20;;;;;;;;;;;;;;;29.63;59.33;100712.53;5081486;27;70646;-39
2023/01/07 08:16:50;;;;;;;;;;;;;;;29.66;60.21;100711.28;5085935;27;66939;-35
2023/01/07 08:19:21;;;;;;;;;;;;;;;29.67;60.58;100713.78;5079703;27;71086;-39
2023/01/07 08:21:52;;;;;;;;;;;;;;;29.69;61.08;100714.38;5084812;27;66775;-40
2023/01/07 08:24:23;;;;;;;;;;;;;;;29.72;61.37;100711.22;5078680;27;68939;-37
2023/01/07 08:26:54;;;;;;;;;;;;;;;29.74;61.01;100714.56;5079675;27;65505;-36
2023/01/07 08:29:25;;;;;;;;;;;;;;;29.74;61.47;100714.56;5085155;27;69290;-37
2023/01/07 08:31:56;;;;;;;;;;;;;;;29.77;61.49;100708.72;5082443;27;66891;-37
2023/01/07 08:34:28;;;;;;;;;;;;;;;29.68;61.60;100709.19;5080232;27;70399;-36
2023/01/07 08:36:59;;;;;;;;;;;;;;;29.71;61.77;100709.59;5080018;27;64746;-35
2023/01/07 08:39:30;;;;;;;;;;;;;;;29.75;61.80;100709.97;5084221;27;70714;-36
2023/01/07 08:42:00;;;;;;;;;;;;;;;29.79;60.92;100717.44;5082024;27;65515;-37
2023/01/07 08:44:33;;;;;;;;;;;;;;;29.82;61.37;100717.00;5071327;27;70900;-35
2023/01/07 08:47:04;;;;;;;;;;;;;;;29.87;61.04;100718.25;5081085;27;66726;-35
2023/01/07 08:49:35;;;;;;;;;;;;;;;29.90;60.90;100717.81;5081843;27;70065;-37
2023/01/07 08:52:05;;;;;;;;;;;;;;;29.88;60.61;100711.78;5080246;27;67414;-35
2023/01/07 08:54:37;;;;;;;;;;;;;;;29.93;60.68;100728.19;5082167;27;69688;-37
2023/01/07 08:57:08;;;;;;;;;;;;;;;29.95;59.95;100723.38;5081174;27;68109;-38
2023/01/07 08:59:39;;;;;;;;;;;;;;;29.96;59.70;100719.63;5085657;27;69533;-38
2023/01/07 09:02:14;;;;;;;;;;;;;;;29.97;60.21;100729.38;5080601;27;66511;-35
2023/01/07 09:04:45;;;;;;;;;;;;;;;29.98;59.65;100725.66;5083576;27;69683;-36
2023/01/07 09:07:16;;;;;;;;;;;;;;;29.98;58.94;100726.47;5063013;28;67057;-37
2023/01/07 09:09:47;;;;;;;;;;;;;;;29.97;59.35;100726.69;5083929;27;70960;-37
2023/01/07 09:12:17;;;;;;;;;;;;;;;29.99;58.64;100740.81;5086240;27;66580;-39
2023/01/07 09:14:48;;;;;;;;;;;;;;;29.99;59.06;100735.41;5084687;27;68086;-37
2023/01/07 09:17:19;;;;;;;;;;;;;;;29.98;58.42;100741.88;5077714;27;66956;-38
2023/01/07 09:19:52;;;;;;;;;;;;;;;29.99;57.59;100748.94;5079969;27;70427;-39
2023/01/07 09:22:22;;;;;;;;;;;;;;;29.98;58.31;100741.88;5064555;27;64525;-39
2023/01/07 09:24:53;;;;;;;;;;;;;;;29.99;57.92;100747.06;5062409;28;69627;-36
2023/01/07 09:27:25;;;;;;;;;;;;;;;29.99;57.35;100749.75;5080051;27;66609;-36
2023/01/07 09:29:57;;;;;;;;;;;;;;;29.98;57.51;100741.88;5082161;27;70210;-36
2023/01/07 09:32:28;;;;;;;;;;;;;;;29.99;57.19;100748.94;5080260;27;66725;-36
2023/01/07 09:34:59;;;;;;;;;;;;;;;29.99;57.27;100754.34;5079377;27;69802;-40
2023/01/07 09:37:30;;;;;;;;;;;;;;;29.98;57.34;100763.53;5061648;27;65972;-39
2023/01/07 09:40:02;;;;;;;;;;;;;;;29.98;57.72;100758.13;5086600;27;69756;-39
2023/01/07 09:42:47;;;;;;;;;;;;;;;29.98;57.59;100763.53;5090422;27;67214;-36
2023/01/07 09:45:30;;;;;;;;;;;;;;;29.96;57.41;100755.63;5090879;27;69153;-35
2023/01/07 09:48:03;;;;;;;;;;;;;;;29.95;57.11;100767.50;5084849;27;66637;-40
2023/01/07 09:50:44;;;;;;;;;;;;;;;29.94;57.35;100765.81;5083167;27;70469;-40
2023/01/07 09:53:22;;;;;;;;;;;;;;;29.94;56.92;100776.63;5065856;27;66745;-40
2023/01/07 09:55:53;;;;;;;;;;;;;;;29.94;57.55;100775.81;5084425;27;70327;-39
2023/01/07 09:58:44;;;;;;;;;;;;;;;29.93;57.51;100776.84;5084992;27;66297;-37
2023/01/07 10:01:30;;;;;;;;;;;;;;;29.92;57.06;100778.75;5083038;27;69181;-37
2023/01/07 10:04:06;;;;;;;;;;;;;;;29.91;57.37;100784.34;5079070;27;65274;-37
2023/01/07 10:06:44;;;;;;;;;;;;;;;29.90;57.33;100794.34;5081915;27;70474;-36
2023/01/07 10:09:38;;;;;;;;;;;;;;;29.90;57.14;100794.34;5080478;27;65418;-36
2023/01/07 10:12:26;;;;;;;;;;;;;;;29.89;57.26;100789.97;5074533;27;70781;-36
2023/01/07 10:15:06;;;;;;;;;;;;;;;29.89;57.27;100791.84;5062862;28;66580;-36
2023/01/07 10:17:53;;;;;;;;;;;;;;;29.88;57.62;100792.91;5081374;27;69877;-36
2023/01/07 10:20:27;;;;;;;;;;;;;;;29.87;57.49;100797.50;5082772;27;65344;-36
2023/01/07 10:23:02;;;;;;;;;;;;;;;29.83;57.78;100798.94;5074890;28;70370;-36
2023/01/07 10:25:41;;;;;;;;;;;;;;;29.85;57.87;100804.97;5080212;27;66093;-36
2023/01/07 10:28:17;;;;;;;;;;;;;;;29.83;57.35;100807.88;5078217;27;69810;-36
2023/01/07 10:30:52;;;;;;;;;;;;;;;29.82;57.44;100814.34;5083645;27;66632;-36
2023/01/07 10:33:29;;;;;;;;;;;;;;;29.80;57.65;100815.59;5084300;27;70847;-35
2023/01/07 10:36:00;;;;;;;;;;;;;;;29.80;57.29;100821.84;5086002;27;66086;-36
2023/01/07 10:38:34;;;;;;;;;;;;;;;29.80;57.34;100823.72;5087178;27;69707;-36
2023/01/07 10:41:13;;;;;;;;;;;;;;;29.78;57.22;100818.53;5073025;27;66111;-35
2023/01/07 10:44:04;;;;;;;;;;;;;;;29.78;57.28;100815.84;5086218;27;71068;-35
2023/01/07 10:46:56;;;;;;;;;;;;;;;29.76;57.35;100815.22;5079616;27;66540;-40
2023/01/07 10:49:45;;;;;;;;;;;;;;;29.76;57.22;100815.22;5088243;27;69483;-36
2023/01/07 10:52:18;;;;;;;;;;;;;;;29.75;57.11;100818.94;5088542;27;66648;-37
2023/01/07 10:54:58;;;;;;;;;;;;;;;29.74;57.11;100821.88;5082570;27;69828;-34
2023/01/07 10:57:30;;;;;;;;;;;;;;;29.73;57.23;100820.22;5081363;27;66979;-36
2023/01/07 11:00:04;;;;;;;;;;;;;;;29.71;57.26;100822.31;5083832;27;70797;-37
2023/01/07 11:02:37;;;;;;;;;;;;;;;29.69;57.79;100819.81;5086155;27;66888;-36
2023/01/07 11:05:10;;;;;;;;;;;;;;;29.70;57.29;100821.47;5086975;27;70528;-37
2023/01/07 11:07:49;;;;;;;;;;;;;;;29.70;57.86;100816.06;5082478;27;66244;-41
2023/01/07 11:10:24;;;;;;;;;;;;;;;29.69;57.22;100824.38;5087143;27;70626;-39
2023/01/07 11:13:01;;;;;;;;;;;;;;;29.69;58.01;100821.69;5048748;27;65608;-38
2023/01/07 11:15:35;;;;;;;;;;;;;;;29.68;57.52;100834.38;5087453;27;70073;-39
2023/01/07 11:18:32;;;;;;;;;;;;;;;29.67;57.95;100830.03;5083349;27;66636;-40
2023/01/07 11:21:02;;;;;;;;;;;;;;;29.64;57.91;100819.59;5083736;27;70912;-38
2023/01/07 11:23:40;;;;;;;;;;;;;;;29.66;57.58;100825.63;5086794;27;65312;-38
2023/01/07 11:26:17;;;;;;;;;;;;;;;29.65;58.03;100837.50;5082127;27;70122;-37
2023/01/07 11:28:55;;;;;;;;;;;;;;;29.63;58.13;100842.28;5042563;28;66232;-39
2023/01/07 11:31:44;;;;;;;;;;;;;;;29.62;57.94;100840.59;5079394;27;70937;-38
2023/01/07 11:34:35;;;;;;;;;;;;;;;29.61;57.94;100839.78;5096016;27;66588;-36
2023/01/07 11:37:05;;;;;;;;;;;;;;;29.60;57.26;100842.69;5083576;27;69719;-38
2023/01/07 11:39:36;;;;;;;;;;;;;;;29.60;57.42;100837.28;5084801;27;66415;-38
2023/01/07 11:45:12;;;;;;;;;;;;;;;29.59;57.85;100851.84;5077295;27;65457;-37
2023/01/07 11:48:00;;;;;;;;;;;;;;;29.57;57.71;100854.75;5091323;27;69770;-41
2023/01/07 11:50:42;;;;;;;;;;;;;;;29.59;58.06;100862.66;5092949;27;66879;-39
2023/01/07 11:53:13;;;;;;;;;;;;;;;29.58;58.23;100869.09;5085341;27;70319;-37
2023/01/07 11:56:00;;;;;;;;;;;;;;;29.57;57.67;100864.72;5079646;27;66579;-40
2023/01/07 11:58:38;;;;;;;;;;;;;;;29.57;57.66;100870.13;5084278;27;69181;-38
2023/01/07 12:01:09;;;;;;;;;;;;;;;29.56;57.78;100868.47;5077260;27;65953;-35
2023/01/07 12:03:52;;;;;;;;;;;;;;;29.56;57.68;100869.31;5083245;27;70687;-39
2023/01/07 12:06:34;;;;;;;;;;;;;;;29.56;58.24;100865.75;5069127;27;66297;-37
2023/01/07 12:09:23;;;;;;;;;;;;;;;29.55;58.17;100873.03;5078357;27;69558;-38
2023/01/07 12:11:56;;;;;;;;;;;;;;;29.56;58.25;100884.69;5085192;27;65927;-40
2023/01/07 12:14:30;;;;;;;;;;;;;;;29.53;57.92;100880.56;5083648;27;70701;-38
2023/01/07 12:17:09;;;;;;;;;;;;;;;29.53;58.13;100879.69;5083420;27;66530;-39
2023/01/07 12:19:59;;;;;;;;;;;;;;;29.51;57.65;100882.63;5070691;27;71054;-40
2023/01/07 12:22:33;;;;;;;;;;;;;;;29.52;57.74;100883.44;5052625;27;66557;-39
2023/01/07 12:25:20;;;;;;;;;;;;;;;29.52;58.09;100894.25;5086224;27;69759;-36
2023/01/07 12:27:59;;;;;;;;;;;;;;;29.50;58.01;100893.63;5079953;27;66409;-41
2023/01/07 12:30:53;;;;;;;;;;;;;;;29.51;58.08;100908.81;5049298;27;70095;-37
2023/01/07 12:33:31;;;;;;;;;;;;;;;29.49;57.96;100910.91;5071508;27;65461;-36
2023/01/07 12:36:04;;;;;;;;;;;;;;;29.49;58.16;100913.59;5078256;27;70768;-38
2023/01/07 12:38:43;;;;;;;;;;;;;;;29.48;57.80;100915.47;5066976;27;67105;-38
2023/01/07 12:41:19;;;;;;;;;;;;;;;29.47;57.91;100918.38;5060256;28;70673;-38
2023/01/07 12:43:56;;;;;;;;;;;;;;;29.47;57.47;100924.63;5086082;27;66436;-37
2023/01/07 12:46:29;;;;;;;;;;;;;;;29.47;57.76;100923.78;5073378;27;70744;-40
2023/01/07 12:49:04;;;;;;;;;;;;;;;29.49;57.30;100921.72;5082515;27;66998;-41
2023/01/07 12:51:39;;;;;;;;;;;;;;;29.50;57.20;100935.00;5076808;27;70152;-38
2023/01/07 12:54:17;;;;;;;;;;;;;;;29.51;57.94;100931.28;5061110;27;64932;-40
2023/01/07 12:56:52;;;;;;;;;;;;;;;29.55;58.24;100928.97;5082660;27;68850;-36
2023/01/07 12:59:39;;;;;;;;;;;;;;;29.55;58.52;100937.91;5081386;27;68151;-42
2023/01/07 13:02:31;;;;;;;;;;;;;;;29.58;58.10;100933.97;5078623;27;69795;-39
2023/01/07 13:05:04;;;;;;;;;;;;;;;29.56;58.33;100936.03;5082976;27;66291;-40
2023/01/07 13:07:39;;;;;;;;;;;;;;;29.59;59.00;100949.97;5082757;27;69712;-40
2023/01/07 13:10:18;;;;;;;;;;;;;;;29.56;57.87;100958.50;5081186;27;67097;-39
2023/01/07 13:12:51;;;;;;;;;;;;;;;29.58;58.34;100959.09;5058347;27;69872;-37
2023/01/07 13:15:26;;;;;;;;;;;;;;;29.59;59.12;100965.38;5087281;27;66570;-41
2023/01/07 13:17:58;;;;;;;;;;;;;;;29.60;59.23;100975.97;5085884;27;69917;-40
2023/01/07 13:20:35;;;;;;;;;;;;;;;29.60;59.44;100980.53;5083644;27;66998;-40